createdAt,value
2017-01-23T00:00:34.549Z,23.31
2017-01-23T00:01:34.479Z,23.39
2017-01-23T00:02:34.420Z,23.46
2017-01-23T00:03:34.360Z,23.37
2017-01-23T00:04:34.295Z,23.39
2017-01-23T00:05:34.242Z,23.41
2017-01-23T00:06:34.172Z,23.47
2017-01-23T00:07:34.134Z,23.47
2017-01-23T00:08:34.052Z,23.4
2017-01-23T00:09:33.994Z,23.5
2017-01-23T00:10:33.922Z,23.43
2017-01-23T00:11:33.860Z,23.4
2017-01-23T00:12:33.799Z,23.41
2017-01-23T00:13:33.742Z,23.43
2017-01-23T00:14:33.676Z,23.36
2017-01-23T00:15:33.616Z,23.44
2017-01-23T00:16:33.555Z,23.46
2017-01-23T00:17:33.495Z,23.34
2017-01-23T00:18:33.432Z,23.44
2017-01-23T00:19:33.373Z,23.41
2017-01-23T00:20:33.312Z,23.48
2017-01-23T00:21:33.248Z,23.44
2017-01-23T00:22:33.188Z,23.41
2017-01-23T00:23:33.126Z,23.43
2017-01-23T00:24:33.063Z,23.43
2017-01-23T00:25:33.002Z,23.44
2017-01-23T00:26:32.938Z,23.46
2017-01-23T00:27:32.878Z,23.46
2017-01-23T00:28:32.813Z,23.46
2017-01-23T00:29:32.761Z,23.47
2017-01-23T00:30:32.694Z,23.43
2017-01-23T00:31:32.632Z,23.5
2017-01-23T00:32:32.572Z,23.43
2017-01-23T00:33:32.508Z,23.47
2017-01-23T00:34:32.450Z,23.47
2017-01-23T00:35:32.385Z,23.44
2017-01-23T00:36:32.322Z,23.43
2017-01-23T00:37:32.263Z,23.44
2017-01-23T00:38:32.197Z,23.48
2017-01-23T00:39:32.140Z,23.47
2017-01-23T00:40:32.076Z,23.44
2017-01-23T00:41:32.012Z,23.48
2017-01-23T00:42:31.954Z,23.44
2017-01-23T00:43:31.890Z,23.46
2017-01-23T00:44:31.828Z,23.48
2017-01-23T00:45:31.772Z,23.46
2017-01-23T00:46:31.706Z,23.46
2017-01-23T00:47:31.643Z,23.47
2017-01-23T00:48:31.588Z,23.44
2017-01-23T00:49:31.523Z,23.44
2017-01-23T00:50:31.491Z,23.41
2017-01-23T00:51:31.393Z,23.44
2017-01-23T00:52:31.332Z,23.39
2017-01-23T00:53:31.275Z,23.43
2017-01-23T00:54:31.213Z,23.46
2017-01-23T00:55:31.150Z,23.46
2017-01-23T00:56:31.085Z,23.46
2017-01-23T00:57:31.023Z,23.46
2017-01-23T00:58:30.962Z,23.47
2017-01-23T00:59:30.900Z,23.47
2017-01-23T01:01:14.988Z,23.44
2017-01-23T01:02:14.777Z,23.41
2017-01-23T01:03:14.713Z,23.46
2017-01-23T01:04:14.652Z,23.46
2017-01-23T01:05:14.622Z,23.46
2017-01-23T01:06:14.829Z,23.46
2017-01-23T01:07:14.466Z,23.41
2017-01-23T01:08:14.403Z,23.47
2017-01-23T01:09:14.341Z,23.48
2017-01-23T01:10:14.672Z,23.41
2017-01-23T01:11:14.228Z,23.34
2017-01-23T01:12:14.156Z,23.37
2017-01-23T01:13:14.098Z,23.44
2017-01-23T01:14:14.032Z,23.37
2017-01-23T01:15:13.973Z,23.37
2017-01-23T01:16:13.907Z,23.39
2017-01-23T01:17:13.848Z,23.44
2017-01-23T01:18:13.784Z,23.47
2017-01-23T01:19:13.724Z,23.37
2017-01-23T01:20:14.064Z,23.44
2017-01-23T01:21:13.610Z,23.37
2017-01-23T01:22:13.538Z,23.43
2017-01-23T01:23:13.478Z,23.36
2017-01-23T01:24:13.805Z,23.44
2017-01-23T01:25:13.354Z,23.41
2017-01-23T01:26:13.291Z,23.34
2017-01-23T01:27:13.245Z,23.36
2017-01-23T01:28:13.168Z,23.4
2017-01-23T01:29:13.104Z,23.31
2017-01-23T01:30:13.826Z,23.37
2017-01-23T01:31:12.980Z,23.32
2017-01-23T01:32:13.313Z,23.4
2017-01-23T01:33:12.862Z,23.41
2017-01-23T01:34:12.803Z,23.32
2017-01-23T01:35:12.735Z,23.37
2017-01-23T01:36:12.670Z,23.39
2017-01-23T01:37:12.612Z,23.32
2017-01-23T01:38:12.562Z,23.37
2017-01-23T01:39:12.493Z,23.31
2017-01-23T01:40:12.426Z,23.41
2017-01-23T01:41:12.366Z,23.37
2017-01-23T01:42:12.306Z,23.37
2017-01-23T01:43:12.240Z,23.31
2017-01-23T01:44:12.180Z,23.39
2017-01-23T01:45:12.124Z,23.34
2017-01-23T01:46:12.054Z,23.32
2017-01-23T01:47:11.994Z,23.32
2017-01-23T01:48:11.932Z,23.34
2017-01-23T01:49:11.873Z,23.34
2017-01-23T01:50:11.808Z,23.43
2017-01-23T01:51:12.141Z,23.28
2017-01-23T01:52:11.703Z,23.34
2017-01-23T01:53:11.621Z,23.31
2017-01-23T01:54:11.567Z,23.31
2017-01-23T01:55:11.497Z,23.28
2017-01-23T01:56:11.434Z,23.32
2017-01-23T01:57:11.373Z,23.34
2017-01-23T01:58:11.323Z,23.41
2017-01-23T01:59:11.250Z,23.31
2017-01-23T02:00:11.187Z,23.32
2017-01-23T02:01:11.128Z,23.28
2017-01-23T02:02:11.064Z,23.27
2017-01-23T02:03:11.007Z,23.39
2017-01-23T02:04:10.943Z,23.27
2017-01-23T02:05:10.880Z,23.28
2017-01-23T02:06:10.817Z,23.37
2017-01-23T02:07:10.773Z,23.32
2017-01-23T02:08:10.694Z,23.31
2017-01-23T02:09:10.631Z,23.28
2017-01-23T02:10:10.569Z,23.25
2017-01-23T02:11:10.513Z,23.39
2017-01-23T02:12:10.448Z,23.28
2017-01-23T02:13:10.385Z,23.36
2017-01-23T02:14:10.321Z,23.25
2017-01-23T02:15:10.259Z,23.27
2017-01-23T02:16:10.196Z,23.32
2017-01-23T02:17:10.135Z,23.27
2017-01-23T02:18:10.099Z,23.32
2017-01-23T02:19:10.015Z,23.31
2017-01-23T02:20:09.953Z,23.27
2017-01-23T02:21:09.890Z,23.27
2017-01-23T02:22:09.827Z,23.24
2017-01-23T02:23:09.762Z,23.37
2017-01-23T02:24:09.709Z,23.27
2017-01-23T02:25:10.035Z,23.32
2017-01-23T02:26:09.611Z,23.37
2017-01-23T02:27:09.516Z,23.25
2017-01-23T02:28:09.453Z,23.28
2017-01-23T02:29:09.394Z,23.25
2017-01-23T02:30:09.722Z,23.28
2017-01-23T02:31:09.266Z,23.23
2017-01-23T02:32:09.210Z,23.21
2017-01-23T02:33:09.146Z,23.31
2017-01-23T02:34:09.084Z,23.21
2017-01-23T02:35:09.019Z,23.23
2017-01-23T02:36:08.960Z,23.24
2017-01-23T02:37:09.316Z,23.25
2017-01-23T02:38:08.839Z,23.36
2017-01-23T02:39:09.164Z,23.21
2017-01-23T02:40:08.720Z,23.24
2017-01-23T02:41:09.042Z,23.21
2017-01-23T02:42:08.587Z,23.23
2017-01-23T02:43:08.525Z,23.27
2017-01-23T02:44:08.462Z,23.24
2017-01-23T02:45:08.409Z,23.18
2017-01-23T02:46:08.352Z,23.2
2017-01-23T02:47:08.279Z,23.21
2017-01-23T02:48:08.212Z,23.2
2017-01-23T02:49:08.155Z,23.2
2017-01-23T02:50:08.091Z,23.24
2017-01-23T02:51:08.029Z,23.21
2017-01-23T02:52:07.967Z,23.23
2017-01-23T02:53:08.329Z,23.18
2017-01-23T02:54:07.845Z,23.25
2017-01-23T02:55:07.783Z,23.25
2017-01-23T02:56:07.723Z,23.18
2017-01-23T02:57:07.657Z,23.21
2017-01-23T02:58:07.594Z,23.24
2017-01-23T02:59:07.533Z,23.23
2017-01-23T03:00:07.868Z,23.23
2017-01-23T03:01:07.443Z,23.23
2017-01-23T03:02:07.349Z,23.24
2017-01-23T03:03:07.289Z,23.25
2017-01-23T03:04:07.223Z,23.21
2017-01-23T03:05:07.162Z,23.21
2017-01-23T03:06:07.100Z,23.21
2017-01-23T03:07:07.039Z,23.21
2017-01-23T03:08:06.986Z,23.24
2017-01-23T03:09:06.915Z,23.21
2017-01-23T03:10:06.854Z,23.21
2017-01-23T03:11:06.791Z,23.25
2017-01-23T03:12:06.729Z,23.27
2017-01-23T03:13:06.672Z,23.23
2017-01-23T03:14:06.605Z,23.23
2017-01-23T03:15:06.549Z,23.31
2017-01-23T03:16:06.485Z,23.27
2017-01-23T03:17:06.421Z,23.27
2017-01-23T03:18:06.391Z,23.31
2017-01-23T03:19:06.689Z,23.23
2017-01-23T03:20:06.235Z,23.32
2017-01-23T03:21:06.174Z,23.27
2017-01-23T03:22:06.114Z,23.27
2017-01-23T03:23:06.053Z,23.25
2017-01-23T03:24:05.989Z,23.39
2017-01-23T03:25:05.929Z,23.32
2017-01-23T03:26:05.869Z,23.28
2017-01-23T03:27:05.804Z,23.28
2017-01-23T03:28:05.744Z,23.32
2017-01-23T03:29:06.073Z,23.39
2017-01-23T03:30:05.624Z,23.27
2017-01-23T03:31:05.561Z,23.4
2017-01-23T03:32:05.498Z,23.37
2017-01-23T03:33:05.435Z,23.44
2017-01-23T03:34:05.371Z,23.46
2017-01-23T03:35:05.729Z,23.41
2017-01-23T03:36:05.250Z,23.41
2017-01-23T03:37:05.189Z,23.41
2017-01-23T03:38:05.128Z,23.43
2017-01-23T03:39:05.065Z,23.44
2017-01-23T03:40:05.011Z,23.46
2017-01-23T03:41:04.941Z,23.44
2017-01-23T03:42:04.881Z,23.44
2017-01-23T03:43:04.821Z,23.44
2017-01-23T03:44:04.756Z,23.46
2017-01-23T03:45:04.701Z,23.44
2017-01-23T03:46:04.634Z,23.39
2017-01-23T03:47:04.574Z,23.44
2017-01-23T03:48:04.516Z,23.46
2017-01-23T03:49:04.452Z,23.46
2017-01-23T03:50:04.389Z,23.48
2017-01-23T03:51:04.328Z,23.44
2017-01-23T03:52:04.267Z,23.44
2017-01-23T03:53:04.206Z,23.47
2017-01-23T03:54:04.544Z,23.46
2017-01-23T03:55:04.083Z,23.46
2017-01-23T03:56:04.019Z,23.46
2017-01-23T03:57:03.957Z,23.46
2017-01-23T03:58:03.897Z,23.46
2017-01-23T03:59:03.837Z,23.44
2017-01-23T04:00:03.773Z,23.46
2017-01-23T04:01:03.712Z,23.47
2017-01-23T04:02:03.648Z,23.41
2017-01-23T04:03:03.589Z,23.48
2017-01-23T04:04:03.528Z,23.46
2017-01-23T04:05:03.466Z,23.5
2017-01-23T04:06:03.410Z,23.41
2017-01-23T04:07:03.344Z,23.44
2017-01-23T04:08:03.280Z,23.41
2017-01-23T04:09:03.218Z,23.46
2017-01-23T04:10:03.160Z,23.44
2017-01-23T04:11:03.097Z,23.41
2017-01-23T04:12:03.036Z,23.48
2017-01-23T04:13:02.977Z,23.47
2017-01-23T04:14:02.912Z,23.55
2017-01-23T04:15:03.257Z,23.44
2017-01-23T04:16:02.790Z,23.48
2017-01-23T04:17:02.726Z,23.59
2017-01-23T04:18:02.667Z,23.51
2017-01-23T04:19:02.602Z,23.51
2017-01-23T04:20:02.574Z,23.44
2017-01-23T04:21:02.480Z,23.47
2017-01-23T04:22:02.418Z,23.59
2017-01-23T04:23:02.356Z,23.54
2017-01-23T04:24:02.297Z,23.58
2017-01-23T04:25:02.232Z,23.44
2017-01-23T04:26:02.172Z,23.41
2017-01-23T04:27:02.504Z,23.46
2017-01-23T04:28:02.054Z,23.54
2017-01-23T04:29:01.987Z,23.44
2017-01-23T04:30:01.936Z,23.51
2017-01-23T04:31:01.875Z,23.44
2017-01-23T04:32:01.803Z,23.46
2017-01-23T04:33:01.742Z,23.44
2017-01-23T04:34:01.680Z,23.5
2017-01-23T04:35:01.623Z,23.44
2017-01-23T04:36:01.555Z,23.46
2017-01-23T04:37:01.493Z,23.43
2017-01-23T04:38:01.434Z,23.43
2017-01-23T04:39:01.373Z,23.46
2017-01-23T04:40:01.308Z,23.46
2017-01-23T04:41:01.248Z,23.46
2017-01-23T04:42:01.186Z,23.47
2017-01-23T04:43:01.124Z,23.44
2017-01-23T04:44:01.068Z,23.47
2017-01-23T04:45:01.392Z,23.44
2017-01-23T04:46:00.938Z,23.44
2017-01-23T04:47:01.297Z,23.41
2017-01-23T04:48:00.817Z,23.46
2017-01-23T04:49:00.756Z,23.44
2017-01-23T04:50:00.697Z,23.46
2017-01-23T04:51:00.640Z,23.47
2017-01-23T04:52:00.962Z,23.46
2017-01-23T04:53:00.507Z,23.44
2017-01-23T04:54:00.446Z,23.46
2017-01-23T04:55:00.388Z,23.47
2017-01-23T04:56:00.325Z,23.41
2017-01-23T04:57:00.270Z,23.39
2017-01-23T04:58:00.198Z,23.39
2017-01-23T04:59:00.136Z,23.37
2017-01-23T05:00:00.102Z,23.46
2017-01-23T05:01:00.014Z,23.47
2017-01-23T05:01:59.952Z,23.36
2017-01-23T05:02:59.893Z,23.36
2017-01-23T05:03:59.829Z,23.34
2017-01-23T05:04:59.765Z,23.37
2017-01-23T05:05:59.703Z,23.34
2017-01-23T05:06:59.645Z,23.37
2017-01-23T05:07:59.581Z,23.37
2017-01-23T05:08:59.519Z,23.37
2017-01-23T05:09:59.468Z,23.39
2017-01-23T05:10:59.400Z,23.32
2017-01-23T05:11:59.335Z,23.37
2017-01-23T05:12:59.272Z,23.31
2017-01-23T05:13:59.210Z,23.37
2017-01-23T05:14:59.152Z,23.25
2017-01-23T05:15:59.088Z,23.36
2017-01-23T05:16:59.023Z,23.34
2017-01-23T05:17:58.963Z,23.34
2017-01-23T05:18:58.906Z,23.27
2017-01-23T05:19:58.839Z,23.32
2017-01-23T05:20:58.781Z,23.34
2017-01-23T05:21:58.716Z,23.31
2017-01-23T05:22:58.661Z,23.31
2017-01-23T05:23:58.591Z,23.31
2017-01-23T05:24:58.533Z,23.34
2017-01-23T05:25:58.472Z,23.32
2017-01-23T05:26:58.405Z,23.43
2017-01-23T05:27:58.348Z,23.31
2017-01-23T05:28:58.286Z,23.37
2017-01-23T05:29:58.222Z,23.32
2017-01-23T05:30:58.157Z,23.4
2017-01-23T05:31:58.109Z,23.27
2017-01-23T05:32:58.034Z,23.36
2017-01-23T05:33:57.981Z,23.36
2017-01-23T05:34:57.915Z,23.31
2017-01-23T05:35:57.854Z,23.36
2017-01-23T05:36:57.787Z,23.36
2017-01-23T05:37:57.725Z,23.25
2017-01-23T05:38:57.667Z,23.31
2017-01-23T05:39:57.602Z,23.31
2017-01-23T05:40:57.540Z,23.27
2017-01-23T05:41:57.478Z,23.2
2017-01-23T05:42:57.416Z,23.34
2017-01-23T05:43:57.352Z,23.27
2017-01-23T05:44:57.292Z,23.37
2017-01-23T05:45:57.231Z,23.25
2017-01-23T05:46:57.169Z,23.25
2017-01-23T05:47:57.106Z,23.25
2017-01-23T05:48:57.044Z,23.21
2017-01-23T05:49:56.990Z,23.28
2017-01-23T05:50:56.925Z,23.21
2017-01-23T05:51:56.858Z,23.28
2017-01-23T05:52:56.803Z,23.23
2017-01-23T05:53:56.733Z,23.21
2017-01-23T05:54:56.675Z,23.18
2017-01-23T05:55:57.006Z,23.23
2017-01-23T05:56:56.549Z,23.25
2017-01-23T05:57:56.489Z,23.25
2017-01-23T05:58:56.432Z,23.23
2017-01-23T05:59:56.360Z,23.24
2017-01-23T06:00:56.298Z,23.23
2017-01-23T06:01:56.247Z,23.18
2017-01-23T06:02:56.175Z,23.23
2017-01-23T06:03:56.113Z,23.24
2017-01-23T06:04:56.051Z,23.25
2017-01-23T06:05:55.991Z,23.23
2017-01-23T06:06:55.929Z,23.27
2017-01-23T06:07:55.867Z,23.2
2017-01-23T06:08:55.804Z,23.17
2017-01-23T06:09:55.743Z,23.27
2017-01-23T06:10:55.681Z,23.24
2017-01-23T06:11:55.617Z,23.2
2017-01-23T06:12:55.555Z,23.18
2017-01-23T06:13:55.495Z,23.25
2017-01-23T06:14:55.430Z,23.21
2017-01-23T06:15:55.378Z,23.24
2017-01-23T06:16:55.305Z,23.24
2017-01-23T06:17:55.251Z,23.23
2017-01-23T06:18:55.181Z,23.2
2017-01-23T06:19:55.123Z,23.27
2017-01-23T06:20:55.062Z,23.21
2017-01-23T06:21:54.997Z,23.21
2017-01-23T06:22:54.934Z,23.24
2017-01-23T06:23:54.872Z,23.24
2017-01-23T06:24:54.816Z,23.23
2017-01-23T06:25:54.751Z,23.21
2017-01-23T06:26:54.686Z,23.25
2017-01-23T06:27:54.623Z,23.21
2017-01-23T06:28:54.561Z,23.27
2017-01-23T06:29:54.502Z,23.32
2017-01-23T06:30:54.443Z,23.39
2017-01-23T06:31:54.379Z,23.27
2017-01-23T06:32:54.319Z,23.39
2017-01-23T06:33:55.453Z,23.4
2017-01-23T06:34:54.191Z,23.32
2017-01-23T06:35:54.135Z,23.32
2017-01-23T06:36:54.067Z,23.36
2017-01-23T06:37:54.008Z,23.37
2017-01-23T06:38:53.945Z,23.34
2017-01-23T06:39:53.880Z,23.39
2017-01-23T06:40:53.821Z,23.41
2017-01-23T06:41:53.761Z,23.41
2017-01-23T06:42:53.697Z,23.44
2017-01-23T06:43:53.639Z,23.47
2017-01-23T06:44:53.574Z,23.54
2017-01-23T06:45:53.509Z,23.51
2017-01-23T06:46:53.451Z,23.55
2017-01-23T06:47:53.386Z,23.58
2017-01-23T06:48:53.326Z,23.55
2017-01-23T06:49:53.264Z,23.56
2017-01-23T06:50:53.203Z,23.5
2017-01-23T06:51:53.142Z,23.5
2017-01-23T06:52:53.079Z,23.48
2017-01-23T06:53:53.020Z,23.51
2017-01-23T06:54:52.954Z,23.54
2017-01-23T06:55:53.288Z,23.58
2017-01-23T06:56:52.834Z,23.54
2017-01-23T06:57:53.165Z,23.56
2017-01-23T06:58:52.711Z,23.54
2017-01-23T06:59:52.647Z,23.54
2017-01-23T07:00:52.588Z,23.5
2017-01-23T07:01:52.523Z,23.51
2017-01-23T07:02:52.461Z,23.51
2017-01-23T07:03:52.400Z,23.5
2017-01-23T07:04:52.339Z,23.48
2017-01-23T07:05:52.277Z,23.51
2017-01-23T07:06:52.222Z,23.5
2017-01-23T07:07:52.153Z,23.48
2017-01-23T07:08:52.095Z,23.54
2017-01-23T07:09:52.033Z,23.5
2017-01-23T07:10:51.972Z,23.51
2017-01-23T07:11:51.912Z,23.56
2017-01-23T07:12:51.852Z,23.51
2017-01-23T07:13:51.784Z,23.46
2017-01-23T07:14:51.724Z,23.5
2017-01-23T07:15:51.664Z,23.48
2017-01-23T07:16:51.605Z,23.5
2017-01-23T07:17:51.567Z,23.56
2017-01-23T07:18:51.481Z,23.5
2017-01-23T07:19:51.415Z,23.54
2017-01-23T07:20:51.357Z,23.5
2017-01-23T07:21:51.295Z,23.51
2017-01-23T07:22:51.233Z,23.48
2017-01-23T07:23:51.167Z,23.55
2017-01-23T07:24:51.108Z,23.5
2017-01-23T07:25:51.045Z,23.48
2017-01-23T07:26:50.985Z,23.55
2017-01-23T07:27:50.924Z,23.55
2017-01-23T07:28:50.865Z,23.55
2017-01-23T07:29:50.806Z,23.48
2017-01-23T07:30:50.739Z,23.56
2017-01-23T07:31:50.680Z,23.55
2017-01-23T07:32:50.619Z,23.55
2017-01-23T07:33:50.558Z,23.56
2017-01-23T07:34:50.493Z,23.55
2017-01-23T07:35:50.434Z,23.59
2017-01-23T07:36:50.368Z,23.51
2017-01-23T07:37:50.309Z,23.48
2017-01-23T07:38:50.246Z,23.55
2017-01-23T07:39:50.183Z,23.56
2017-01-23T07:40:50.124Z,23.55
2017-01-23T07:41:50.215Z,23.58
2017-01-23T07:42:50.006Z,23.41
2017-01-23T07:43:49.935Z,23.54
2017-01-23T07:44:49.878Z,23.58
2017-01-23T07:45:49.812Z,23.56
2017-01-23T07:46:49.831Z,23.47
2017-01-23T07:47:49.689Z,23.46
2017-01-23T07:48:49.630Z,23.54
2017-01-23T07:49:49.569Z,23.47
2017-01-23T07:50:49.503Z,23.44
2017-01-23T07:51:49.447Z,23.44
2017-01-23T07:52:49.381Z,23.55
2017-01-23T07:53:49.319Z,23.48
2017-01-23T07:54:49.259Z,23.47
2017-01-23T07:55:49.232Z,23.43
2017-01-23T07:56:49.136Z,23.48
2017-01-23T07:57:49.072Z,23.46
2017-01-23T07:58:49.037Z,23.47
2017-01-23T07:59:48.949Z,23.41
2017-01-23T08:00:48.889Z,23.44
2017-01-23T08:01:48.828Z,23.44
2017-01-23T08:02:48.763Z,23.47
2017-01-23T08:03:48.717Z,23.44
2017-01-23T08:04:48.639Z,23.44
2017-01-23T08:05:48.614Z,23.47
2017-01-23T08:06:48.517Z,23.41
2017-01-23T08:07:48.455Z,23.4
2017-01-23T08:08:48.393Z,23.44
2017-01-23T08:09:48.333Z,23.44
2017-01-23T08:10:48.421Z,23.44
2017-01-23T08:11:48.206Z,23.32
2017-01-23T08:12:48.145Z,23.36
2017-01-23T08:13:48.089Z,23.37
2017-01-23T08:14:48.020Z,23.31
2017-01-23T08:15:48.211Z,23.4
2017-01-23T08:16:48.293Z,23.31
2017-01-23T08:17:47.850Z,23.32
2017-01-23T08:18:47.817Z,23.36
2017-01-23T08:19:47.714Z,23.27
2017-01-23T08:20:47.652Z,23.34
2017-01-23T08:21:47.590Z,23.31
2017-01-23T08:22:47.522Z,23.39
2017-01-23T08:23:47.467Z,23.31
2017-01-23T08:24:47.402Z,23.4
2017-01-23T08:25:47.341Z,23.39
2017-01-23T08:26:47.277Z,23.27
2017-01-23T08:27:47.216Z,23.37
2017-01-23T08:28:47.158Z,23.37
2017-01-23T08:29:47.091Z,23.27
2017-01-23T08:30:47.082Z,23.24
2017-01-23T08:31:46.968Z,23.24
2017-01-23T08:32:46.907Z,23.21
2017-01-23T08:33:46.848Z,23.23
2017-01-23T08:34:46.782Z,23.24
2017-01-23T08:35:46.717Z,23.25
2017-01-23T08:36:46.657Z,23.27
2017-01-23T08:37:46.598Z,23.27
2017-01-23T08:38:46.534Z,23.24
2017-01-23T08:39:46.475Z,23.24
2017-01-23T08:40:46.412Z,23.18
2017-01-23T08:41:46.376Z,23.25
2017-01-23T08:42:46.286Z,23.21
2017-01-23T08:43:46.222Z,23.25
2017-01-23T08:44:46.157Z,23.21
2017-01-23T08:45:46.097Z,23.21
2017-01-23T08:46:46.046Z,23.23
2017-01-23T08:47:45.975Z,23.2
2017-01-23T08:48:45.911Z,23.21
2017-01-23T08:49:46.246Z,23.18
2017-01-23T08:50:45.786Z,23.18
2017-01-23T08:51:45.727Z,23.23
2017-01-23T08:52:45.662Z,23.25
2017-01-23T08:53:45.600Z,23.23
2017-01-23T08:54:45.552Z,23.24
2017-01-23T08:55:45.481Z,23.25
2017-01-23T08:56:45.414Z,23.13
2017-01-23T08:57:45.352Z,23.2
2017-01-23T08:58:45.289Z,23.23
2017-01-23T08:59:45.239Z,23.21
2017-01-23T09:00:45.175Z,23.32
2017-01-23T09:01:45.104Z,23.27
2017-01-23T09:02:45.044Z,23.23
2017-01-23T09:03:44.981Z,23.23
2017-01-23T09:04:44.923Z,23.24
2017-01-23T09:05:44.857Z,23.17
2017-01-23T09:06:45.188Z,23.25
2017-01-23T09:07:44.732Z,23.25
2017-01-23T09:08:44.674Z,23.24
2017-01-23T09:09:44.618Z,23.23
2017-01-23T09:10:44.546Z,23.25
2017-01-23T09:11:44.484Z,23.2
2017-01-23T09:12:44.428Z,23.25
2017-01-23T09:13:44.360Z,23.23
2017-01-23T09:14:44.299Z,23.24
2017-01-23T09:15:44.239Z,23.23
2017-01-23T09:16:44.176Z,23.17
2017-01-23T09:17:44.112Z,23.24
2017-01-23T09:18:44.052Z,23.24
2017-01-23T09:19:43.987Z,23.24
2017-01-23T09:20:43.925Z,23.15
2017-01-23T09:21:43.864Z,23.23
2017-01-23T09:22:43.801Z,23.24
2017-01-23T09:23:43.741Z,23.25
2017-01-23T09:24:43.679Z,23.28
2017-01-23T09:25:43.618Z,23.27
2017-01-23T09:26:43.557Z,23.21
2017-01-23T09:27:43.495Z,23.23
2017-01-23T09:28:43.676Z,23.25
2017-01-23T09:29:43.366Z,23.15
2017-01-23T09:30:43.306Z,23.21
2017-01-23T09:31:43.243Z,23.13
2017-01-23T09:32:43.179Z,23.17
2017-01-23T09:33:43.118Z,23.24
2017-01-23T09:34:43.089Z,23.24
2017-01-23T09:35:42.995Z,23.15
2017-01-23T09:36:42.942Z,23.24
2017-01-23T09:37:42.870Z,23.17
2017-01-23T09:38:42.810Z,23.18
2017-01-23T09:39:42.754Z,23.13
2017-01-23T09:40:43.068Z,23.17
2017-01-23T09:41:42.622Z,23.12
2017-01-23T09:42:42.555Z,23.2
2017-01-23T09:43:42.512Z,23.1
2017-01-23T09:44:42.446Z,23.13
2017-01-23T09:45:42.372Z,23.13
2017-01-23T09:46:42.312Z,23.17
2017-01-23T09:47:42.244Z,23.12
2017-01-23T09:48:42.220Z,23.15
2017-01-23T09:49:42.122Z,23.12
2017-01-23T09:50:42.059Z,23.15
2017-01-23T09:51:42.388Z,23.15
2017-01-23T09:52:41.935Z,23.06
2017-01-23T09:53:41.879Z,23.12
2017-01-23T09:54:42.592Z,23.2
2017-01-23T09:55:41.763Z,23.15
2017-01-23T09:56:41.687Z,23.02
2017-01-23T09:57:41.622Z,23.05
2017-01-23T09:58:41.562Z,23.06
2017-01-23T09:59:41.496Z,23.02
2017-01-23T10:00:41.432Z,23.05
2017-01-23T10:01:41.426Z,23.05
2017-01-23T10:02:41.316Z,23.03
2017-01-23T10:03:41.302Z,23.05
2017-01-23T10:04:41.198Z,23.06
2017-01-23T10:05:41.125Z,22.99
2017-01-23T10:06:41.065Z,23.03
2017-01-23T10:07:41.009Z,23.05
2017-01-23T10:08:40.934Z,23.06
2017-01-23T10:09:40.893Z,23.03
2017-01-23T10:10:40.811Z,23.02
2017-01-23T10:11:40.749Z,23.03
2017-01-23T10:12:40.739Z,23.1
2017-01-23T10:13:40.628Z,23.08
2017-01-23T10:14:40.963Z,23.06
2017-01-23T10:15:40.894Z,23.05
2017-01-23T10:16:40.534Z,23.06
2017-01-23T10:17:40.380Z,23.08
2017-01-23T10:18:40.315Z,23.06
2017-01-23T10:19:40.269Z,23.08
2017-01-23T10:20:40.196Z,23.09
2017-01-23T10:21:40.128Z,23.08
2017-01-23T10:22:40.229Z,23.05
2017-01-23T10:23:40.002Z,23.06
2017-01-23T10:24:39.936Z,23.03
2017-01-23T10:25:39.879Z,23.03
2017-01-23T10:26:39.820Z,23.05
2017-01-23T10:27:39.751Z,23.08
2017-01-23T10:28:39.689Z,23.02
2017-01-23T10:29:39.628Z,23.09
2017-01-23T10:30:39.560Z,23.08
2017-01-23T10:31:39.507Z,23.05
2017-01-23T10:32:39.440Z,23.05
2017-01-23T10:33:39.374Z,23.09
2017-01-23T10:34:39.311Z,23.09
2017-01-23T10:35:39.602Z,23.09
2017-01-23T10:36:39.191Z,23.05
2017-01-23T10:37:39.123Z,23.1
2017-01-23T10:38:39.069Z,22.99
2017-01-23T10:39:39.013Z,23.03
2017-01-23T10:40:38.943Z,23.05
2017-01-23T10:41:38.903Z,23.05
2017-01-23T10:42:38.814Z,23.03
2017-01-23T10:43:38.758Z,23.02
2017-01-23T10:44:38.689Z,23.03
2017-01-23T10:45:38.934Z,23.02
2017-01-23T10:46:38.563Z,23.08
2017-01-23T10:47:38.506Z,23.02
2017-01-23T10:48:38.439Z,23.03
2017-01-23T10:49:38.378Z,23.06
2017-01-23T10:50:38.466Z,23.03
2017-01-23T10:51:38.253Z,23.03
2017-01-23T10:52:38.194Z,23.05
2017-01-23T10:53:38.128Z,23.02
2017-01-23T10:54:38.066Z,22.99
2017-01-23T10:55:38.002Z,23.06
2017-01-23T10:56:37.940Z,22.98
2017-01-23T10:57:37.890Z,23
2017-01-23T10:58:37.816Z,23.02
2017-01-23T10:59:38.141Z,23.03
2017-01-23T11:00:37.942Z,22.98
2017-01-23T11:01:37.629Z,22.98
2017-01-23T11:02:37.598Z,23.02
2017-01-23T11:03:37.502Z,22.98
2017-01-23T11:04:37.438Z,22.91
2017-01-23T11:05:37.389Z,23.02
2017-01-23T11:06:37.358Z,22.94
2017-01-23T11:07:37.253Z,22.91
2017-01-23T11:08:37.229Z,22.98
2017-01-23T11:09:37.523Z,22.96
2017-01-23T11:10:37.068Z,22.94
2017-01-23T11:11:37.010Z,22.96
2017-01-23T11:12:37.335Z,22.94
2017-01-23T11:13:37.269Z,22.91
2017-01-23T11:14:36.816Z,22.94
2017-01-23T11:15:36.754Z,22.88
2017-01-23T11:16:36.695Z,22.98
2017-01-23T11:17:36.627Z,22.91
2017-01-23T11:18:36.566Z,22.91
2017-01-23T11:19:36.510Z,22.94
2017-01-23T11:20:36.440Z,22.87
2017-01-23T11:21:36.378Z,22.88
2017-01-23T11:22:36.317Z,22.85
2017-01-23T11:23:36.254Z,22.96
2017-01-23T11:24:36.196Z,22.9
2017-01-23T11:25:36.130Z,22.91
2017-01-23T11:26:36.476Z,22.93
2017-01-23T11:27:36.007Z,22.96
2017-01-23T11:28:35.939Z,22.84
2017-01-23T11:29:35.883Z,22.87
2017-01-23T11:30:36.596Z,22.98
2017-01-23T11:31:35.751Z,22.88
2017-01-23T11:32:35.687Z,22.94
2017-01-23T11:33:36.019Z,22.83
2017-01-23T11:34:35.563Z,22.93
2017-01-23T11:35:35.501Z,22.83
2017-01-23T11:36:35.440Z,22.84
2017-01-23T11:37:35.379Z,22.93
2017-01-23T11:38:35.320Z,22.83
2017-01-23T11:39:35.248Z,22.81
2017-01-23T11:40:35.195Z,22.9
2017-01-23T11:41:35.136Z,22.91
2017-01-23T11:42:35.065Z,22.8
2017-01-23T11:43:35.002Z,22.85
2017-01-23T11:44:34.944Z,22.81
2017-01-23T11:45:34.878Z,22.84
2017-01-23T11:46:34.816Z,22.8
2017-01-23T11:47:34.748Z,22.84
2017-01-23T11:48:34.694Z,22.75
2017-01-23T11:49:34.623Z,22.8
2017-01-23T11:50:34.564Z,22.84
2017-01-23T11:51:34.510Z,22.85
2017-01-23T11:52:34.442Z,22.8
2017-01-23T11:53:34.375Z,22.81
2017-01-23T11:54:34.312Z,22.8
2017-01-23T11:55:34.248Z,22.8
2017-01-23T11:56:34.190Z,22.73
2017-01-23T11:57:34.123Z,22.76
2017-01-23T11:58:34.485Z,22.76
2017-01-23T11:59:34.022Z,22.72
2017-01-23T12:00:33.937Z,22.73
2017-01-23T12:01:33.873Z,22.75
2017-01-23T12:02:33.813Z,22.84
2017-01-23T12:03:33.749Z,22.84
2017-01-23T12:04:33.694Z,22.7
2017-01-23T12:05:33.726Z,22.81
2017-01-23T12:06:33.560Z,22.76
2017-01-23T12:07:33.510Z,22.8
2017-01-23T12:08:33.442Z,22.76
2017-01-23T12:09:33.387Z,22.7
2017-01-23T12:10:33.332Z,22.69
2017-01-23T12:11:33.250Z,22.78
2017-01-23T12:12:33.184Z,22.8
2017-01-23T12:13:33.120Z,22.72
2017-01-23T12:14:33.451Z,22.78
2017-01-23T12:15:33.001Z,22.68
2017-01-23T12:16:32.936Z,22.75
2017-01-23T12:17:33.082Z,22.72
2017-01-23T12:18:32.810Z,22.72
2017-01-23T12:19:32.749Z,22.73
2017-01-23T12:20:33.074Z,22.65
2017-01-23T12:21:33.027Z,22.68
2017-01-23T12:22:32.567Z,22.69
2017-01-23T12:23:32.496Z,22.6
2017-01-23T12:24:32.432Z,22.66
2017-01-23T12:25:32.369Z,22.63
2017-01-23T12:26:32.308Z,22.65
2017-01-23T12:27:32.250Z,22.65
2017-01-23T12:28:32.181Z,22.7
2017-01-23T12:29:32.205Z,22.63
2017-01-23T12:30:32.529Z,22.6
2017-01-23T12:31:32.001Z,22.69
2017-01-23T12:32:32.127Z,22.65
2017-01-23T12:33:31.930Z,22.63
2017-01-23T12:34:31.843Z,22.66
2017-01-23T12:35:31.782Z,22.53
2017-01-23T12:36:31.694Z,22.6
2017-01-23T12:37:31.631Z,22.54
2017-01-23T12:38:31.587Z,22.54
2017-01-23T12:39:31.529Z,22.59
2017-01-23T12:40:31.451Z,22.62
2017-01-23T12:41:31.517Z,22.51
2017-01-23T12:42:31.619Z,22.53
2017-01-23T12:43:31.244Z,22.63
2017-01-23T12:44:31.220Z,22.55
2017-01-23T12:45:31.136Z,22.62
2017-01-23T12:46:31.082Z,22.63
2017-01-23T12:47:31.005Z,22.51
2017-01-23T12:48:30.946Z,22.66
2017-01-23T12:49:30.878Z,22.62
2017-01-23T12:50:31.156Z,22.62
2017-01-23T12:51:30.775Z,22.6
2017-01-23T12:52:30.704Z,22.57
2017-01-23T12:53:30.622Z,22.57
2017-01-23T12:54:30.648Z,22.53